createdAt,value
2023-03-25T00:00:23.066Z,16.05
2023-03-25T00:02:52.525Z,15.52
2023-03-25T00:05:28.669Z,17.13
2023-03-25T00:07:55.628Z,12.10
2023-03-25T00:10:22.487Z,17.42
2023-03-25T00:12:55.649Z,17.35
2023-03-25T00:15:23.800Z,16.15
2023-03-25T00:17:57.995Z,12.77
2023-03-25T00:20:24.809Z,13.23
2023-03-25T00:22:51.642Z,14.25
2023-03-25T00:25:26.646Z,13.57
2023-03-25T00:27:59.809Z,17.15
2023-03-25T00:30:32.725Z,14.23
2023-03-25T00:33:01.806Z,12.07
2023-03-25T00:35:29.167Z,13.93
2023-03-25T00:38:09.692Z,18.35
2023-03-25T00:40:36.499Z,13.80
2023-03-25T00:43:05.028Z,13.57
2023-03-25T00:45:38.793Z,16.45
2023-03-25T00:48:07.099Z,16.85
2023-03-25T00:50:40.800Z,17.70
2023-03-25T00:53:14.744Z,17.27
2023-03-25T00:55:49.271Z,16.52
2023-03-25T00:58:16.860Z,16.30
2023-03-25T01:00:43.654Z,13.52
2023-03-25T01:03:30.864Z,13.60
2023-03-25T01:06:04.761Z,12.23
2023-03-25T01:08:38.730Z,13.93
2023-03-25T01:11:20.895Z,12.98
2023-03-25T01:13:57.698Z,16.17
2023-03-25T01:16:30.802Z,20.15
2023-03-25T01:18:57.680Z,15.57
2023-03-25T01:21:24.836Z,14.00
2023-03-25T01:23:57.726Z,11.68
2023-03-25T01:26:30.733Z,13.13
2023-03-25T01:28:57.632Z,17.33
2023-03-25T01:31:30.322Z,15.75
2023-03-25T01:34:04.740Z,21.20
2023-03-25T01:36:31.754Z,17.85
2023-03-25T01:39:06.755Z,20.50
2023-03-25T01:41:48.509Z,16.80
2023-03-25T01:44:28.790Z,16.02
2023-03-25T01:46:57.445Z,16.00
2023-03-25T01:49:46.784Z,16.85
2023-03-25T01:52:27.868Z,14.77
2023-03-25T01:54:56.997Z,17.17
2023-03-25T01:57:37.839Z,17.60
2023-03-25T02:00:09.456Z,16.67
2023-03-25T02:02:46.840Z,18.35
2023-03-25T02:05:26.150Z,10.93
2023-03-25T02:08:04.822Z,16.30
2023-03-25T02:10:32.568Z,13.60
2023-03-25T02:13:00.113Z,18.73
2023-03-25T02:15:33.829Z,15.00
2023-03-25T02:18:40.676Z,17.95
2023-03-25T02:21:44.840Z,18.65
2023-03-25T02:24:30.178Z,17.20
2023-03-25T02:27:21.881Z,18.38
2023-03-25T02:30:14.070Z,16.40
2023-03-25T02:33:09.886Z,15.23
2023-03-25T02:36:05.149Z,14.77
2023-03-25T02:38:47.888Z,13.02
2023-03-25T02:41:25.736Z,16.80
2023-03-25T02:44:11.867Z,16.55
2023-03-25T02:46:46.004Z,19.30
2023-03-25T02:49:42.849Z,14.85
2023-03-25T02:52:12.277Z,14.60
2023-03-25T02:54:41.866Z,18.45
2023-03-25T02:57:17.887Z,17.98
2023-03-25T02:59:47.262Z,15.52
2023-03-25T03:02:15.852Z,17.67
2023-03-25T03:04:57.895Z,18.45
2023-03-25T03:07:33.767Z,17.38
2023-03-25T03:10:29.933Z,15.98
2023-03-25T03:13:11.024Z,20.25
2023-03-25T03:15:57.950Z,18.23
2023-03-25T03:18:44.866Z,24.95
2023-03-25T03:21:30.261Z,16.60
2023-03-25T03:24:09.942Z,19.20
2023-03-25T03:26:55.982Z,13.40
2023-03-25T03:29:37.982Z,16.98
2023-03-25T03:32:35.154Z,14.93
2023-03-25T03:35:08.826Z,18.05
2023-03-25T03:37:51.987Z,19.77
2023-03-25T03:40:22.866Z,19.05
2023-03-25T03:43:19.986Z,17.80
2023-03-25T03:45:51.898Z,22.02
2023-03-25T03:48:31.990Z,21.92
2023-03-25T03:51:14.104Z,27.02
2023-03-25T03:53:57.018Z,22.92
2023-03-25T03:56:32.348Z,19.85
2023-03-25T03:59:09.321Z,15.85
2023-03-25T04:01:47.859Z,21.88
2023-03-25T04:04:27.280Z,23.88
2023-03-25T04:07:21.019Z,19.90
2023-03-25T04:10:03.142Z,21.30
2023-03-25T04:12:38.755Z,22.35
2023-03-25T04:15:13.095Z,22.40
2023-03-25T04:17:47.054Z,16.90
2023-03-25T04:20:22.065Z,16.13
2023-03-25T04:23:00.056Z,15.45
2023-03-25T04:25:27.640Z,20.17
2023-03-25T04:28:05.034Z,24.10
2023-03-25T04:30:31.767Z,20.33
2023-03-25T04:33:07.095Z,29.13
2023-03-25T04:35:41.057Z,28.77
2023-03-25T04:38:08.431Z,24.52
2023-03-25T04:40:42.049Z,23.50
2023-03-25T04:43:08.993Z,22.85
2023-03-25T04:45:43.098Z,25.65
2023-03-25T04:48:22.326Z,26.88
2023-03-25T04:50:58.082Z,29.63
2023-03-25T04:53:39.180Z,21.10
2023-03-25T04:56:07.736Z,25.23
2023-03-25T04:58:43.072Z,25.58
2023-03-25T05:01:32.889Z,20.48
2023-03-25T05:04:11.094Z,25.73
2023-03-25T05:06:50.185Z,30.13
2023-03-25T05:09:27.139Z,27.77
2023-03-25T05:11:55.938Z,25.25
2023-03-25T05:14:29.100Z,24.10
2023-03-25T05:17:09.099Z,24.50
2023-03-25T05:19:35.969Z,26.33
2023-03-25T05:22:10.233Z,18.08
2023-03-25T05:24:44.120Z,24.55
2023-03-25T05:27:11.006Z,27.40
2023-03-25T05:29:37.758Z,31.02
2023-03-25T05:32:11.102Z,25.65
2023-03-25T05:34:38.621Z,30.35
2023-03-25T05:37:12.181Z,37.28
2023-03-25T05:39:39.309Z,22.85
2023-03-25T05:42:13.160Z,27.20
2023-03-25T05:44:50.891Z,38.35
2023-03-25T05:47:30.193Z,28.73
2023-03-25T05:50:03.172Z,32.28
2023-03-25T05:52:31.486Z,30.30
2023-03-25T05:55:11.188Z,24.33
2023-03-25T05:57:45.203Z,25.73
2023-03-25T06:00:13.700Z,27.45
2023-03-25T06:02:43.180Z,27.58
2023-03-25T06:05:20.307Z,31.55
2023-03-25T06:08:02.257Z,24.85
2023-03-25T06:10:29.663Z,26.40
2023-03-25T06:12:56.710Z,25.42
2023-03-25T06:15:35.413Z,23.23
2023-03-25T06:18:11.227Z,21.77
2023-03-25T06:20:38.176Z,22.05
2023-03-25T06:23:12.232Z,23.27
2023-03-25T06:25:39.246Z,19.95
2023-03-25T06:28:25.260Z,23.02
2023-03-25T06:30:59.268Z,29.70
2023-03-25T06:33:43.529Z,27.02
2023-03-25T06:36:19.312Z,28.13
2023-03-25T06:38:50.468Z,26.67
2023-03-25T06:41:27.226Z,25.52
2023-03-25T06:43:54.115Z,31.15
2023-03-25T06:46:27.311Z,23.25
2023-03-25T06:49:00.258Z,28.13
2023-03-25T06:51:33.286Z,25.52
2023-03-25T06:54:00.542Z,27.38
2023-03-25T06:56:27.426Z,30.48
2023-03-25T06:59:00.279Z,23.67
2023-03-25T07:01:27.262Z,24.85
2023-03-25T07:04:00.291Z,24.17
2023-03-25T07:06:27.195Z,27.25
2023-03-25T07:09:00.344Z,22.08
2023-03-25T07:11:31.015Z,25.38
2023-03-25T07:14:04.356Z,32.45
2023-03-25T07:16:31.385Z,20.90
2023-03-25T07:19:05.325Z,22.27
2023-03-25T07:21:32.127Z,34.72
2023-03-25T07:23:59.024Z,28.48
2023-03-25T07:26:32.362Z,26.67
2023-03-25T07:29:05.353Z,29.15
2023-03-25T07:31:32.349Z,25.45
2023-03-25T07:34:07.404Z,30.40
2023-03-25T07:36:34.325Z,34.17
2023-03-25T07:39:01.183Z,30.10
2023-03-25T07:41:41.442Z,29.88
2023-03-25T07:44:08.486Z,25.55
2023-03-25T07:46:41.483Z,23.45
2023-03-25T07:49:14.307Z,22.55
2023-03-25T07:51:41.169Z,29.58
2023-03-25T07:54:14.404Z,23.40
2023-03-25T07:56:41.481Z,24.20
2023-03-25T07:59:16.400Z,23.25
2023-03-25T08:01:43.209Z,24.75
2023-03-25T08:04:16.419Z,32.17
2023-03-25T08:06:49.541Z,31.30
2023-03-25T08:09:16.501Z,22.52
2023-03-25T08:11:51.449Z,22.13
2023-03-25T08:14:18.484Z,22.13
2023-03-25T08:16:52.443Z,25.63
2023-03-25T08:19:19.410Z,31.42
2023-03-25T08:21:52.528Z,24.42
2023-03-25T08:24:25.392Z,22.73
2023-03-25T08:26:52.284Z,24.55
2023-03-25T08:29:26.442Z,21.60
2023-03-25T08:31:54.549Z,33.70
2023-03-25T08:37:01.143Z,30.27
2023-03-25T08:39:36.449Z,23.35
2023-03-25T08:42:03.470Z,30.02
2023-03-25T08:44:36.509Z,27.45
2023-03-25T08:47:05.514Z,22.35
2023-03-25T08:49:38.448Z,21.65
2023-03-25T08:52:08.891Z,28.25
2023-03-25T08:54:42.484Z,22.58
2023-03-25T08:57:09.487Z,27.20
2023-03-25T08:59:42.441Z,26.70
2023-03-25T09:02:18.521Z,29.58
2023-03-25T09:04:54.464Z,26.25
2023-03-25T09:07:30.201Z,25.42
2023-03-25T09:10:03.502Z,24.27
2023-03-25T09:12:32.510Z,21.55
2023-03-25T09:15:05.457Z,24.60
2023-03-25T09:17:33.952Z,28.90
2023-03-25T09:20:07.519Z,24.38
2023-03-25T09:22:38.216Z,24.63
2023-03-25T09:25:13.509Z,27.08
2023-03-25T09:27:40.688Z,22.90
2023-03-25T09:30:15.517Z,25.42
2023-03-25T09:32:42.661Z,25.08
2023-03-25T09:35:16.636Z,19.65
2023-03-25T09:37:52.096Z,24.85
2023-03-25T09:40:31.526Z,28.55
2023-03-25T09:43:20.778Z,25.02
2023-03-25T09:45:55.536Z,25.95
2023-03-25T09:48:25.501Z,21.48
2023-03-25T09:51:00.527Z,29.67
2023-03-25T09:53:39.309Z,20.70
2023-03-25T09:56:20.528Z,27.83
2023-03-25T09:58:50.535Z,25.95
2023-03-25T10:01:37.596Z,29.42
2023-03-25T10:04:16.417Z,26.75
2023-03-25T10:06:58.528Z,23.65
2023-03-25T10:09:47.361Z,21.83
2023-03-25T10:12:49.664Z,20.15
2023-03-25T10:15:44.627Z,24.80
2023-03-25T10:19:00.606Z,21.95
2023-03-25T10:21:50.586Z,27.02
2023-03-25T10:24:39.104Z,22.70
2023-03-25T10:27:21.625Z,17.42
2023-03-25T10:32:43.667Z,18.52
2023-03-25T10:35:53.787Z,23.65
2023-03-25T10:38:25.784Z,18.92
2023-03-25T10:41:25.681Z,19.30
2023-03-25T10:44:00.654Z,24.45
2023-03-25T10:46:57.670Z,23.58
2023-03-25T10:49:30.170Z,25.58
2023-03-25T10:54:40.061Z,20.08
2023-03-25T10:57:32.735Z,19.23
2023-03-25T11:00:25.657Z,23.38
2023-03-25T11:03:03.719Z,20.90
2023-03-25T11:05:35.619Z,12.50
2023-03-25T11:08:23.751Z,23.35
2023-03-25T11:11:04.949Z,15.32
2023-03-25T11:13:38.674Z,21.95
2023-03-25T11:16:12.711Z,16.20
2023-03-25T11:18:46.686Z,17.50
2023-03-25T11:21:21.696Z,17.90
2023-03-25T11:23:57.665Z,17.05
2023-03-25T11:26:33.892Z,19.67
2023-03-25T11:29:12.712Z,22.83
2023-03-25T11:31:48.786Z,21.05
2023-03-25T11:34:30.774Z,21.23
2023-03-25T11:37:04.580Z,28.77
2023-03-25T11:39:45.948Z,22.65
2023-03-25T11:42:32.182Z,18.75
2023-03-25T11:45:07.704Z,21.40
2023-03-25T11:47:44.802Z,19.67
2023-03-25T11:50:22.706Z,15.73
2023-03-25T11:52:59.831Z,22.58
2023-03-25T11:55:37.715Z,18.92
2023-03-25T11:58:28.734Z,20.50
2023-03-25T12:01:29.608Z,14.82
2023-03-25T12:04:13.880Z,11.25
2023-03-25T12:07:06.787Z,15.93
2023-03-25T12:09:33.605Z,15.38
2023-03-25T12:12:01.008Z,18.30
2023-03-25T12:14:54.748Z,17.27
2023-03-25T12:17:43.147Z,17.00
2023-03-25T12:20:37.793Z,19.10
2023-03-25T12:23:28.112Z,17.70
2023-03-25T12:26:17.899Z,17.35
2023-03-25T12:29:12.259Z,21.88
2023-03-25T12:32:00.811Z,16.92
2023-03-25T12:34:39.876Z,12.70
2023-03-25T12:37:32.722Z,14.70
2023-03-25T12:40:31.830Z,17.95
2023-03-25T12:43:10.488Z,16.70
2023-03-25T12:45:54.895Z,19.17
2023-03-25T12:49:05.811Z,13.25
2023-03-25T12:51:56.867Z,13.82
2023-03-25T12:54:49.826Z,17.60
2023-03-25T12:57:53.866Z,18.75
2023-03-25T13:00:32.545Z,19.55
2023-03-25T13:03:40.903Z,16.48
2023-03-25T13:06:16.638Z,20.27
2023-03-25T13:08:58.828Z,15.35
2023-03-25T13:11:44.873Z,15.95
2023-03-25T13:14:50.813Z,18.17
2023-03-25T13:17:34.885Z,14.27
2023-03-25T13:20:06.541Z,22.02
2023-03-25T13:22:46.857Z,22.88
2023-03-25T13:25:26.378Z,16.17
2023-03-25T13:28:03.894Z,18.42
2023-03-25T13:30:43.744Z,17.30
2023-03-25T13:33:31.900Z,14.73
2023-03-25T13:36:27.891Z,18.52
2023-03-25T13:39:11.926Z,17.45
2023-03-25T13:41:46.176Z,21.55
2023-03-25T13:44:19.920Z,16.67
2023-03-25T13:47:23.385Z,20.42
2023-03-25T13:50:13.891Z,17.48
2023-03-25T13:52:45.848Z,10.75
2023-03-25T13:55:28.064Z,13.38
2023-03-25T13:58:18.401Z,18.83
2023-03-25T14:01:36.936Z,19.58
2023-03-25T14:04:21.890Z,12.35
2023-03-25T14:07:27.955Z,7.38
2023-03-25T14:10:17.827Z,4.65
2023-03-25T14:13:05.931Z,6.38
2023-03-25T14:15:39.812Z,9.90
2023-03-25T14:18:22.950Z,16.48
2023-03-25T14:20:59.227Z,23.33
2023-03-25T14:23:38.931Z,16.65
2023-03-25T14:26:15.965Z,19.30
2023-03-25T14:28:51.978Z,16.20
2023-03-25T14:31:39.070Z,17.38
2023-03-25T14:34:11.975Z,17.67
2023-03-25T14:36:48.975Z,16.00
2023-03-25T14:39:30.800Z,14.27
2023-03-25T14:42:05.993Z,16.55
2023-03-25T14:44:56.018Z,13.95
2023-03-25T14:47:33.000Z,17.90
2023-03-25T14:50:15.998Z,19.27
2023-03-25T14:52:51.971Z,20.15
2023-03-25T14:55:35.043Z,16.23
2023-03-25T14:58:23.888Z,15.77
2023-03-25T15:01:09.016Z,19.10
2023-03-25T15:03:46.094Z,15.77
2023-03-25T15:06:34.283Z,15.27
2023-03-25T15:09:16.167Z,14.27
2023-03-25T15:11:53.083Z,15.70
2023-03-25T15:14:32.028Z,15.27
2023-03-25T15:17:09.028Z,17.48
2023-03-25T15:20:10.495Z,16.90
2023-03-25T15:22:45.033Z,17.73
2023-03-25T15:25:25.140Z,19.75
2023-03-25T15:28:41.081Z,17.73
2023-03-25T15:31:56.178Z,17.90
2023-03-25T15:34:54.843Z,18.80
2023-03-25T15:37:59.066Z,15.98
2023-03-25T15:40:41.118Z,18.10
2023-03-25T15:43:59.595Z,16.95
2023-03-25T15:47:13.304Z,13.75
2023-03-25T15:49:49.181Z,15.95
2023-03-25T15:52:42.070Z,20.02
2023-03-25T15:55:21.294Z,12.23
2023-03-25T15:58:06.132Z,11.48
2023-03-25T16:00:37.550Z,14.13
2023-03-25T16:03:23.269Z,23.40
2023-03-25T16:06:05.146Z,19.17
2023-03-25T16:08:43.175Z,26.17
2023-03-25T16:11:25.941Z,20.90
2023-03-25T16:14:23.162Z,17.58
2023-03-25T16:17:04.170Z,20.42
2023-03-25T16:19:41.561Z,21.88
2023-03-25T16:22:35.128Z,23.50
2023-03-25T16:25:14.698Z,29.67
2023-03-25T16:27:59.252Z,24.48
2023-03-25T16:30:38.362Z,23.55
2023-03-25T16:33:16.240Z,16.92
2023-03-25T16:35:50.221Z,16.42
2023-03-25T16:38:28.262Z,13.68
2023-03-25T16:41:11.595Z,18.17
2023-03-25T16:43:45.165Z,15.25
2023-03-25T16:46:21.268Z,21.90
2023-03-25T16:49:00.442Z,18.50
2023-03-25T16:51:32.125Z,11.68
2023-03-25T16:54:08.494Z,17.40
2023-03-25T16:56:39.534Z,19.35
2023-03-25T16:59:22.203Z,18.17
2023-03-25T17:02:01.366Z,22.58
2023-03-25T17:04:58.122Z,14.27
2023-03-25T17:07:35.328Z,16.83
2023-03-25T17:10:09.244Z,22.17
2023-03-25T17:12:36.202Z,13.73
2023-03-25T17:15:16.240Z,18.63
2023-03-25T17:17:57.276Z,22.48
2023-03-25T17:20:43.227Z,22.77
2023-03-25T17:23:42.513Z,19.63
2023-03-25T17:26:19.286Z,18.83
2023-03-25T17:28:58.480Z,18.58
2023-03-25T17:31:39.344Z,21.77
2023-03-25T17:34:19.300Z,21.98
2023-03-25T17:36:49.000Z,20.20
2023-03-25T17:39:25.287Z,18.55
2023-03-25T17:42:01.613Z,19.98
2023-03-25T17:44:51.325Z,24.73
2023-03-25T17:47:20.128Z,26.80
2023-03-25T17:49:54.295Z,24.67
2023-03-25T17:52:30.721Z,26.42
2023-03-25T17:54:58.685Z,29.48
2023-03-25T17:57:37.638Z,26.58
2023-03-25T18:00:12.348Z,24.83
2023-03-25T18:02:47.357Z,18.73
2023-03-25T18:05:15.492Z,22.85
2023-03-25T18:07:42.707Z,22.38
2023-03-25T18:10:26.350Z,19.77
2023-03-25T18:13:00.299Z,20.35
2023-03-25T18:15:27.810Z,17.67
2023-03-25T18:17:59.451Z,24.27
2023-03-25T18:20:36.457Z,20.88
2023-03-25T18:23:06.412Z,11.07
2023-03-25T18:25:40.325Z,9.23
2023-03-25T18:28:07.268Z,8.32
2023-03-25T18:30:58.362Z,8.98
2023-03-25T18:33:35.403Z,8.95
2023-03-25T18:36:08.340Z,13.30
2023-03-25T18:38:41.341Z,11.05
2023-03-25T18:41:10.621Z,9.35
2023-03-25T18:43:44.377Z,20.60
2023-03-25T18:46:32.439Z,16.83
2023-03-25T18:49:06.865Z,20.98
2023-03-25T18:51:40.434Z,25.55
2023-03-25T18:54:15.392Z,19.55
2023-03-25T18:56:42.545Z,21.30
2023-03-25T18:59:11.069Z,28.95
2023-03-25T19:01:44.550Z,24.05
2023-03-25T19:04:18.414Z,22.52
2023-03-25T19:06:52.400Z,25.70
2023-03-25T19:09:19.317Z,38.05
2023-03-25T19:11:53.426Z,33.47
2023-03-25T19:14:20.253Z,29.95
2023-03-25T19:17:03.229Z,23.55
2023-03-25T19:19:30.906Z,35.22
2023-03-25T19:22:04.416Z,31.50
2023-03-25T19:24:31.338Z,48.33
2023-03-25T19:27:12.417Z,38.65
2023-03-25T19:29:45.496Z,24.60
2023-03-25T19:32:19.413Z,24.35
2023-03-25T19:34:46.446Z,23.05
2023-03-25T19:37:13.817Z,17.92
2023-03-25T19:39:49.470Z,28.17
2023-03-25T19:42:16.644Z,29.65
2023-03-25T19:44:44.602Z,28.45
2023-03-25T19:47:18.538Z,25.83
2023-03-25T19:49:46.154Z,28.00
2023-03-25T19:52:19.485Z,21.40
2023-03-25T19:54:46.879Z,22.02
2023-03-25T19:57:20.525Z,18.35
2023-03-25T19:59:53.470Z,23.23
2023-03-25T20:02:27.723Z,20.38
2023-03-25T20:04:54.779Z,23.80
2023-03-25T20:07:28.560Z,24.90
2023-03-25T20:10:16.706Z,34.00
2023-03-25T20:12:59.678Z,32.03
2023-03-25T20:15:27.265Z,31.17
2023-03-25T20:18:02.602Z,23.77
2023-03-25T20:20:29.494Z,19.70
2023-03-25T20:23:06.510Z,32.47
2023-03-25T20:25:33.318Z,29.75
2023-03-25T20:28:07.539Z,27.17
2023-03-25T20:30:35.750Z,27.77
2023-03-25T20:33:09.609Z,25.48
2023-03-25T20:35:43.622Z,26.02
2023-03-25T20:38:11.665Z,21.58
2023-03-25T20:40:44.579Z,17.75
2023-03-25T20:43:20.621Z,24.25
2023-03-25T20:45:47.443Z,15.50
2023-03-25T20:48:21.593Z,18.95
2023-03-25T20:50:48.679Z,18.50
2023-03-25T20:53:22.573Z,18.40
2023-03-25T20:55:49.596Z,23.08
2023-03-25T20:58:23.542Z,18.50
2023-03-25T21:00:50.481Z,16.40
2023-03-25T21:03:30.594Z,17.08
2023-03-25T21:06:07.436Z,15.30
2023-03-25T21:08:47.577Z,16.40
2023-03-25T21:11:17.545Z,12.43
2023-03-25T21:13:44.430Z,9.23
2023-03-25T21:16:17.650Z,11.27
2023-03-25T21:18:44.719Z,9.65
2023-03-25T21:21:19.612Z,11.50
2023-03-25T21:23:46.774Z,15.68
2023-03-25T21:26:22.633Z,14.68
2023-03-25T21:28:49.769Z,13.32
2023-03-25T21:31:27.679Z,16.10
2023-03-25T21:33:56.226Z,14.10
2023-03-25T21:36:38.601Z,10.93
2023-03-25T21:39:06.881Z,8.93
2023-03-25T21:41:41.754Z,6.57
2023-03-25T21:44:08.892Z,9.07
2023-03-25T21:46:43.684Z,11.40
2023-03-25T21:49:11.721Z,9.40
2023-03-25T21:51:42.528Z,10.77
2023-03-25T21:54:17.675Z,15.00
2023-03-25T21:56:50.750Z,8.52
2023-03-25T21:59:17.681Z,13.20
2023-03-25T22:01:51.638Z,8.73
2023-03-25T22:04:25.696Z,12.98
2023-03-25T22:06:52.581Z,8.07
2023-03-25T22:09:25.697Z,7.80
2023-03-25T22:12:00.126Z,13.88
2023-03-25T22:14:33.864Z,10.93
2023-03-25T22:17:00.812Z,9.43
2023-03-25T22:19:27.713Z,8.07
2023-03-25T22:22:00.686Z,15.77
2023-03-25T22:24:30.111Z,8.52
2023-03-25T22:27:03.765Z,11.63
2023-03-25T22:29:30.618Z,11.45
2023-03-25T22:32:03.759Z,14.65
2023-03-25T22:34:30.835Z,7.80
2023-03-25T22:37:03.696Z,9.02
2023-03-25T22:39:37.084Z,5.47
2023-03-25T22:42:10.699Z,5.30
2023-03-25T22:44:37.500Z,4.88
2023-03-25T22:47:10.741Z,4.95
2023-03-25T22:49:40.468Z,6.60
2023-03-25T22:52:09.064Z,6.38
2023-03-25T22:54:42.830Z,5.80
2023-03-25T22:57:17.759Z,4.88
2023-03-25T22:59:44.526Z,12.40
2023-03-25T23:02:14.156Z,11.15
2023-03-25T23:04:47.927Z,11.15
2023-03-25T23:07:14.879Z,9.68
2023-03-25T23:09:48.796Z,9.85
2023-03-25T23:12:20.254Z,12.18
2023-03-25T23:14:58.816Z,11.83
2023-03-25T23:17:27.007Z,11.18
2023-03-25T23:20:00.836Z,9.32
2023-03-25T23:22:27.992Z,13.48
2023-03-25T23:25:02.892Z,11.60
2023-03-25T23:27:40.810Z,11.27
2023-03-25T23:30:14.790Z,14.93
2023-03-25T23:32:42.213Z,9.43
2023-03-25T23:35:25.031Z,9.63
2023-03-25T23:37:56.725Z,10.07
2023-03-25T23:40:32.825Z,8.75
2023-03-25T23:42:59.584Z,11.38
2023-03-25T23:45:36.863Z,10.05
2023-03-25T23:48:09.898Z,8.50
2023-03-25T23:50:36.741Z,7.32
2023-03-25T23:53:09.838Z,7.93
2023-03-25T23:55:37.259Z,7.78
2023-03-25T23:58:10.864Z,9.02
